sensor_id;sensor_type;location;lat;lon;timestamp;P1;durP1;ratioP1;P2;durP2;ratioP2
59306;SDS011;47983;53.016;-2.260;2023-10-13T00:00:42;31.13;;;12.77;;
59306;SDS011;47983;53.016;-2.260;2023-10-13T00:03:10;35.03;;;13.50;;
59306;SDS011;47983;53.016;-2.260;2023-10-13T00:05:46;32.60;;;13.13;;
59306;SDS011;47983;53.016;-2.260;2023-10-13T00:08:14;26.40;;;12.48;;
59306;SDS011;47983;53.016;-2.260;2023-10-13T00:10:42;25.23;;;11.73;;
59306;SDS011;47983;53.016;-2.260;2023-10-13T00:13:10;25.90;;;12.40;;
59306;SDS011;47983;53.016;-2.260;2023-10-13T00:15:44;26.65;;;11.85;;
59306;SDS011;47983;53.016;-2.260;2023-10-13T00:18:33;31.42;;;12.13;;
59306;SDS011;47983;53.016;-2.260;2023-10-13T00:21:02;31.70;;;12.40;;
59306;SDS011;47983;53.016;-2.260;2023-10-13T00:23:40;30.38;;;12.98;;
59306;SDS011;47983;53.016;-2.260;2023-10-13T00:26:24;29.10;;;12.18;;
59306;SDS011;47983;53.016;-2.260;2023-10-13T00:29:00;28.73;;;12.27;;
59306;SDS011;47983;53.016;-2.260;2023-10-13T00:31:49;25.08;;;11.77;;
59306;SDS011;47983;53.016;-2.260;2023-10-13T00:34:20;29.33;;;12.27;;
59306;SDS011;47983;53.016;-2.260;2023-10-13T00:36:54;26.52;;;11.70;;
59306;SDS011;47983;53.016;-2.260;2023-10-13T00:39:45;23.58;;;11.90;;
59306;SDS011;47983;53.016;-2.260;2023-10-13T00:42:13;29.25;;;12.45;;
59306;SDS011;47983;53.016;-2.260;2023-10-13T00:45:01;31.05;;;12.02;;
59306;SDS011;47983;53.016;-2.260;2023-10-13T00:47:31;32.88;;;12.20;;
59306;SDS011;47983;53.016;-2.260;2023-10-13T00:50:16;27.95;;;12.18;;
59306;SDS011;47983;53.016;-2.260;2023-10-13T00:52:45;25.25;;;11.75;;
59306;SDS011;47983;53.016;-2.260;2023-10-13T00:55:18;30.13;;;12.48;;
59306;SDS011;47983;53.016;-2.260;2023-10-13T00:57:53;26.70;;;10.77;;
59306;SDS011;47983;53.016;-2.260;2023-10-13T01:00:24;28.65;;;11.35;;
59306;SDS011;47983;53.016;-2.260;2023-10-13T01:02:56;26.95;;;11.45;;
59306;SDS011;47983;53.016;-2.260;2023-10-13T01:05:24;31.83;;;10.85;;
59306;SDS011;47983;53.016;-2.260;2023-10-13T01:07:53;29.75;;;11.20;;
59306;SDS011;47983;53.016;-2.260;2023-10-13T01:10:22;26.02;;;9.82;;
59306;SDS011;47983;53.016;-2.260;2023-10-13T01:12:56;22.90;;;9.70;;
59306;SDS011;47983;53.016;-2.260;2023-10-13T01:15:26;25.90;;;9.40;;
59306;SDS011;47983;53.016;-2.260;2023-10-13T01:18:07;24.10;;;9.45;;
59306;SDS011;47983;53.016;-2.260;2023-10-13T01:20:39;18.10;;;7.93;;
59306;SDS011;47983;53.016;-2.260;2023-10-13T01:23:13;19.95;;;8.35;;
59306;SDS011;47983;53.016;-2.260;2023-10-13T01:25:46;18.10;;;6.90;;
59306;SDS011;47983;53.016;-2.260;2023-10-13T01:28:15;19.30;;;6.93;;
59306;SDS011;47983;53.016;-2.260;2023-10-13T01:30:44;19.05;;;7.05;;
59306;SDS011;47983;53.016;-2.260;2023-10-13T01:33:18;14.57;;;6.20;;
59306;SDS011;47983;53.016;-2.260;2023-10-13T01:35:56;14.65;;;6.72;;
59306;SDS011;47983;53.016;-2.260;2023-10-13T01:38:26;17.48;;;6.90;;
59306;SDS011;47983;53.016;-2.260;2023-10-13T01:40:54;19.05;;;6.82;;
59306;SDS011;47983;53.016;-2.260;2023-10-13T01:43:24;19.30;;;6.03;;
59306;SDS011;47983;53.016;-2.260;2023-10-13T01:45:52;15.57;;;5.63;;
59306;SDS011;47983;53.016;-2.260;2023-10-13T01:48:20;17.55;;;6.38;;
59306;SDS011;47983;53.016;-2.260;2023-10-13T01:50:49;17.88;;;6.47;;
59306;SDS011;47983;53.016;-2.260;2023-10-13T01:53:23;19.65;;;7.10;;
59306;SDS011;47983;53.016;-2.260;2023-10-13T01:55:51;19.45;;;6.85;;
59306;SDS011;47983;53.016;-2.260;2023-10-13T01:58:18;19.92;;;6.22;;
59306;SDS011;47983;53.016;-2.260;2023-10-13T02:00:50;25.42;;;7.10;;
59306;SDS011;47983;53.016;-2.260;2023-10-13T02:03:18;19.30;;;6.70;;
59306;SDS011;47983;53.016;-2.260;2023-10-13T02:05:49;18.65;;;6.43;;
59306;SDS011;47983;53.016;-2.260;2023-10-13T02:08:21;15.82;;;5.95;;
59306;SDS011;47983;53.016;-2.260;2023-10-13T02:10:51;12.68;;;5.57;;
59306;SDS011;47983;53.016;-2.260;2023-10-13T02:13:21;14.05;;;5.85;;
59306;SDS011;47983;53.016;-2.260;2023-10-13T02:15:54;14.35;;;5.50;;
59306;SDS011;47983;53.016;-2.260;2023-10-13T02:18:24;11.02;;;4.78;;
59306;SDS011;47983;53.016;-2.260;2023-10-13T02:20:55;11.75;;;5.20;;
59306;SDS011;47983;53.016;-2.260;2023-10-13T02:23:31;12.35;;;4.75;;
59306;SDS011;47983;53.016;-2.260;2023-10-13T02:26:02;13.85;;;4.30;;
59306;SDS011;47983;53.016;-2.260;2023-10-13T02:28:38;13.32;;;5.07;;
59306;SDS011;47983;53.016;-2.260;2023-10-13T02:31:06;11.57;;;4.97;;
59306;SDS011;47983;53.016;-2.260;2023-10-13T02:33:34;12.32;;;4.63;;
59306;SDS011;47983;53.016;-2.260;2023-10-13T02:36:03;9.27;;;4.55;;
59306;SDS011;47983;53.016;-2.260;2023-10-13T02:38:34;13.82;;;4.32;;
59306;SDS011;47983;53.016;-2.260;2023-10-13T02:41:13;11.15;;;4.25;;
59306;SDS011;47983;53.016;-2.260;2023-10-13T02:43:55;10.93;;;4.40;;
59306;SDS011;47983;53.016;-2.260;2023-10-13T02:46:23;13.07;;;4.40;;
59306;SDS011;47983;53.016;-2.260;2023-10-13T02:48:57;12.00;;;3.85;;
59306;SDS011;47983;53.016;-2.260;2023-10-13T02:51:29;8.63;;;3.70;;
59306;SDS011;47983;53.016;-2.260;2023-10-13T02:54:04;11.52;;;3.97;;
59306;SDS011;47983;53.016;-2.260;2023-10-13T02:56:40;9.68;;;3.63;;
59306;SDS011;47983;53.016;-2.260;2023-10-13T02:59:24;7.25;;;2.95;;
59306;SDS011;47983;53.016;-2.260;2023-10-13T03:02:02;6.72;;;3.05;;
59306;SDS011;47983;53.016;-2.260;2023-10-13T03:04:48;5.82;;;2.78;;
59306;SDS011;47983;53.016;-2.260;2023-10-13T03:07:17;5.75;;;2.72;;
59306;SDS011;47983;53.016;-2.260;2023-10-13T03:12:27;4.60;;;2.28;;
59306;SDS011;47983;53.016;-2.260;2023-10-13T03:15:01;3.78;;;2.20;;
59306;SDS011;47983;53.016;-2.260;2023-10-13T03:17:50;7.18;;;2.33;;
59306;SDS011;47983;53.016;-2.260;2023-10-13T03:20:22;8.07;;;1.92;;
59306;SDS011;47983;53.016;-2.260;2023-10-13T03:22:52;5.93;;;2.47;;
59306;SDS011;47983;53.016;-2.260;2023-10-13T03:25:20;5.47;;;2.42;;
59306;SDS011;47983;53.016;-2.260;2023-10-13T03:27:58;4.88;;;1.98;;
59306;SDS011;47983;53.016;-2.260;2023-10-13T03:30:28;3.25;;;1.80;;
59306;SDS011;47983;53.016;-2.260;2023-10-13T03:33:11;4.03;;;1.90;;
59306;SDS011;47983;53.016;-2.260;2023-10-13T03:35:41;9.30;;;2.60;;
59306;SDS011;47983;53.016;-2.260;2023-10-13T03:38:09;5.53;;;2.38;;
59306;SDS011;47983;53.016;-2.260;2023-10-13T03:40:49;4.20;;;2.15;;
59306;SDS011;47983;53.016;-2.260;2023-10-13T03:43:40;4.03;;;2.33;;
59306;SDS011;47983;53.016;-2.260;2023-10-13T03:46:28;6.88;;;2.47;;
59306;SDS011;47983;53.016;-2.260;2023-10-13T03:48:57;8.48;;;2.50;;
59306;SDS011;47983;53.016;-2.260;2023-10-13T03:51:29;7.20;;;2.67;;
59306;SDS011;47983;53.016;-2.260;2023-10-13T03:54:00;11.32;;;3.53;;
59306;SDS011;47983;53.016;-2.260;2023-10-13T03:56:35;6.15;;;3.20;;
59306;SDS011;47983;53.016;-2.260;2023-10-13T03:59:08;6.63;;;3.67;;
59306;SDS011;47983;53.016;-2.260;2023-10-13T04:01:42;9.07;;;4.15;;
59306;SDS011;47983;53.016;-2.260;2023-10-13T04:04:10;8.65;;;3.90;;
59306;SDS011;47983;53.016;-2.260;2023-10-13T04:06:39;10.93;;;3.90;;
59306;SDS011;47983;53.016;-2.260;2023-10-13T04:09:30;8.15;;;3.90;;
59306;SDS011;47983;53.016;-2.260;2023-10-13T04:14:46;10.32;;;4.20;;
59306;SDS011;47983;53.016;-2.260;2023-10-13T04:17:31;7.93;;;4.20;;
59306;SDS011;47983;53.016;-2.260;2023-10-13T04:20:08;9.32;;;4.07;;
59306;SDS011;47983;53.016;-2.260;2023-10-13T04:22:36;11.50;;;3.75;;
59306;SDS011;47983;53.016;-2.260;2023-10-13T04:25:19;10.05;;;4.47;;
59306;SDS011;47983;53.016;-2.260;2023-10-13T04:28:12;7.15;;;3.67;;
59306;SDS011;47983;53.016;-2.260;2023-10-13T04:30:45;8.45;;;3.50;;
59306;SDS011;47983;53.016;-2.260;2023-10-13T04:36:11;8.75;;;3.67;;
59306;SDS011;47983;53.016;-2.260;2023-10-13T04:38:49;6.72;;;3.22;;
59306;SDS011;47983;53.016;-2.260;2023-10-13T04:41:27;6.60;;;3.17;;
59306;SDS011;47983;53.016;-2.260;2023-10-13T04:44:10;10.55;;;3.92;;
59306;SDS011;47983;53.016;-2.260;2023-10-13T04:46:59;11.68;;;4.32;;
59306;SDS011;47983;53.016;-2.260;2023-10-13T04:49:31;9.88;;;4.15;;
59306;SDS011;47983;53.016;-2.260;2023-10-13T04:52:17;6.18;;;3.53;;
59306;SDS011;47983;53.016;-2.260;2023-10-13T04:55:12;13.52;;;4.80;;
59306;SDS011;47983;53.016;-2.260;2023-10-13T04:58:10;14.18;;;5.50;;
59306;SDS011;47983;53.016;-2.260;2023-10-13T05:00:42;11.77;;;5.60;;
59306;SDS011;47983;53.016;-2.260;2023-10-13T05:03:22;11.60;;;5.32;;
59306;SDS011;47983;53.016;-2.260;2023-10-13T05:06:20;10.20;;;4.97;;
59306;SDS011;47983;53.016;-2.260;2023-10-13T05:09:10;10.43;;;4.60;;
59306;SDS011;47983;53.016;-2.260;2023-10-13T05:11:58;11.13;;;4.57;;
59306;SDS011;47983;53.016;-2.260;2023-10-13T05:14:44;7.28;;;3.70;;
59306;SDS011;47983;53.016;-2.260;2023-10-13T05:17:31;7.35;;;3.75;;
59306;SDS011;47983;53.016;-2.260;2023-10-13T05:20:17;10.00;;;3.90;;
59306;SDS011;47983;53.016;-2.260;2023-10-13T05:23:04;10.35;;;4.40;;
59306;SDS011;47983;53.016;-2.260;2023-10-13T05:25:50;13.70;;;5.40;;
59306;SDS011;47983;53.016;-2.260;2023-10-13T05:28:36;8.02;;;4.45;;
59306;SDS011;47983;53.016;-2.260;2023-10-13T05:31:23;10.15;;;4.63;;
59306;SDS011;47983;53.016;-2.260;2023-10-13T05:34:09;6.60;;;3.58;;
59306;SDS011;47983;53.016;-2.260;2023-10-13T05:36:56;8.48;;;3.63;;
59306;SDS011;47983;53.016;-2.260;2023-10-13T05:39:43;8.90;;;3.72;;
59306;SDS011;47983;53.016;-2.260;2023-10-13T05:42:29;8.23;;;4.15;;
59306;SDS011;47983;53.016;-2.260;2023-10-13T05:45:15;10.48;;;3.90;;
59306;SDS011;47983;53.016;-2.260;2023-10-13T05:47:43;8.20;;;3.60;;
59306;SDS011;47983;53.016;-2.260;2023-10-13T05:50:12;10.27;;;4.03;;
59306;SDS011;47983;53.016;-2.260;2023-10-13T05:53:00;8.43;;;4.30;;
59306;SDS011;47983;53.016;-2.260;2023-10-13T05:55:28;8.95;;;3.83;;
59306;SDS011;47983;53.016;-2.260;2023-10-13T05:58:16;9.70;;;4.18;;
59306;SDS011;47983;53.016;-2.260;2023-10-13T06:01:02;7.85;;;3.40;;
59306;SDS011;47983;53.016;-2.260;2023-10-13T06:03:49;11.52;;;4.03;;
59306;SDS011;47983;53.016;-2.260;2023-10-13T06:06:36;7.88;;;4.30;;
59306;SDS011;47983;53.016;-2.260;2023-10-13T06:09:23;8.15;;;3.92;;
59306;SDS011;47983;53.016;-2.260;2023-10-13T06:12:09;9.10;;;4.75;;
59306;SDS011;47983;53.016;-2.260;2023-10-13T06:15:09;10.90;;;5.00;;
59306;SDS011;47983;53.016;-2.260;2023-10-13T06:17:55;9.20;;;4.32;;
59306;SDS011;47983;53.016;-2.260;2023-10-13T06:20:42;11.65;;;5.15;;
59306;SDS011;47983;53.016;-2.260;2023-10-13T06:23:31;9.98;;;5.03;;
59306;SDS011;47983;53.016;-2.260;2023-10-13T06:26:18;12.88;;;5.18;;
59306;SDS011;47983;53.016;-2.260;2023-10-13T06:29:05;10.05;;;4.82;;
59306;SDS011;47983;53.016;-2.260;2023-10-13T06:34:04;10.57;;;5.13;;
59306;SDS011;47983;53.016;-2.260;2023-10-13T06:36:31;9.88;;;4.78;;
59306;SDS011;47983;53.016;-2.260;2023-10-13T06:39:00;10.70;;;4.47;;
59306;SDS011;47983;53.016;-2.260;2023-10-13T06:41:47;13.82;;;5.18;;
59306;SDS011;47983;53.016;-2.260;2023-10-13T06:44:15;11.43;;;4.30;;
59306;SDS011;47983;53.016;-2.260;2023-10-13T06:46:43;8.90;;;4.15;;
59306;SDS011;47983;53.016;-2.260;2023-10-13T06:49:11;7.88;;;4.03;;
59306;SDS011;47983;53.016;-2.260;2023-10-13T06:51:41;10.07;;;4.47;;
59306;SDS011;47983;53.016;-2.260;2023-10-13T06:54:23;11.48;;;4.43;;
59306;SDS011;47983;53.016;-2.260;2023-10-13T06:56:52;7.07;;;4.32;;
59306;SDS011;47983;53.016;-2.260;2023-10-13T06:59:20;8.43;;;4.93;;
59306;SDS011;47983;53.016;-2.260;2023-10-13T07:01:54;5.53;;;4.25;;
59306;SDS011;47983;53.016;-2.260;2023-10-13T07:04:42;8.27;;;4.43;;
59306;SDS011;47983;53.016;-2.260;2023-10-13T07:07:10;6.00;;;3.58;;
59306;SDS011;47983;53.016;-2.260;2023-10-13T07:09:38;8.95;;;4.47;;
59306;SDS011;47983;53.016;-2.260;2023-10-13T07:12:17;8.60;;;4.72;;
59306;SDS011;47983;53.016;-2.260;2023-10-13T07:14:49;6.78;;;4.05;;
59306;SDS011;47983;53.016;-2.260;2023-10-13T07:17:20;5.53;;;3.28;;
59306;SDS011;47983;53.016;-2.260;2023-10-13T07:19:54;7.28;;;3.72;;
59306;SDS011;47983;53.016;-2.260;2023-10-13T07:22:34;5.43;;;3.63;;
59306;SDS011;47983;53.016;-2.260;2023-10-13T07:25:07;7.28;;;3.40;;
59306;SDS011;47983;53.016;-2.260;2023-10-13T07:27:35;5.95;;;3.80;;
59306;SDS011;47983;53.016;-2.260;2023-10-13T07:30:03;4.68;;;2.63;;
59306;SDS011;47983;53.016;-2.260;2023-10-13T07:32:41;4.03;;;2.13;;
59306;SDS011;47983;53.016;-2.260;2023-10-13T07:35:14;4.75;;;2.67;;
59306;SDS011;47983;53.016;-2.260;2023-10-13T07:37:45;4.82;;;2.60;;
59306;SDS011;47983;53.016;-2.260;2023-10-13T07:40:16;4.90;;;2.72;;
59306;SDS011;47983;53.016;-2.260;2023-10-13T07:42:56;4.22;;;2.63;;
59306;SDS011;47983;53.016;-2.260;2023-10-13T07:45:37;3.35;;;2.05;;
59306;SDS011;47983;53.016;-2.260;2023-10-13T07:48:09;2.72;;;1.88;;
59306;SDS011;47983;53.016;-2.260;2023-10-13T07:50:48;4.88;;;2.13;;
59306;SDS011;47983;53.016;-2.260;2023-10-13T07:53:29;3.50;;;2.25;;
59306;SDS011;47983;53.016;-2.260;2023-10-13T07:56:02;3.58;;;1.77;;
59306;SDS011;47983;53.016;-2.260;2023-10-13T07:58:32;1.88;;;1.42;;
59306;SDS011;47983;53.016;-2.260;2023-10-13T08:01:01;2.88;;;1.98;;
59306;SDS011;47983;53.016;-2.260;2023-10-13T08:03:35;4.20;;;2.22;;
59306;SDS011;47983;53.016;-2.260;2023-10-13T08:06:13;3.25;;;1.90;;
59306;SDS011;47983;53.016;-2.260;2023-10-13T08:08:48;3.03;;;2.20;;
59306;SDS011;47983;53.016;-2.260;2023-10-13T08:11:23;4.82;;;2.40;;
59306;SDS011;47983;53.016;-2.260;2023-10-13T08:13:54;4.40;;;2.33;;
59306;SDS011;47983;53.016;-2.260;2023-10-13T08:16:39;3.20;;;2.50;;
59306;SDS011;47983;53.016;-2.260;2023-10-13T08:19:21;5.47;;;2.47;;
59306;SDS011;47983;53.016;-2.260;2023-10-13T08:21:55;5.55;;;2.33;;
59306;SDS011;47983;53.016;-2.260;2023-10-13T08:24:27;2.92;;;2.00;;
59306;SDS011;47983;53.016;-2.260;2023-10-13T08:27:05;3.95;;;2.15;;
59306;SDS011;47983;53.016;-2.260;2023-10-13T08:29:53;3.83;;;2.20;;
59306;SDS011;47983;53.016;-2.260;2023-10-13T08:32:40;3.08;;;2.20;;
59306;SDS011;47983;53.016;-2.260;2023-10-13T08:35:31;9.07;;;5.10;;
59306;SDS011;47983;53.016;-2.260;2023-10-13T08:38:02;6.68;;;3.47;;
59306;SDS011;47983;53.016;-2.260;2023-10-13T08:40:52;4.38;;;2.45;;
59306;SDS011;47983;53.016;-2.260;2023-10-13T08:43:42;4.90;;;2.70;;
59306;SDS011;47983;53.016;-2.260;2023-10-13T08:46:13;5.28;;;2.42;;
59306;SDS011;47983;53.016;-2.260;2023-10-13T08:49:00;4.00;;;2.67;;
59306;SDS011;47983;53.016;-2.260;2023-10-13T08:51:43;8.02;;;2.88;;
59306;SDS011;47983;53.016;-2.260;2023-10-13T08:54:12;4.15;;;2.42;;
59306;SDS011;47983;53.016;-2.260;2023-10-13T08:56:48;3.42;;;2.60;;
59306;SDS011;47983;53.016;-2.260;2023-10-13T08:59:30;4.75;;;2.42;;
59306;SDS011;47983;53.016;-2.260;2023-10-13T09:02:15;5.75;;;2.75;;
59306;SDS011;47983;53.016;-2.260;2023-10-13T09:04:43;6.93;;;2.40;;
59306;SDS011;47983;53.016;-2.260;2023-10-13T09:07:12;3.10;;;2.30;;
59306;SDS011;47983;53.016;-2.260;2023-10-13T09:12:14;4.35;;;2.30;;
59306;SDS011;47983;53.016;-2.260;2023-10-13T09:14:52;2.50;;;1.88;;
59306;SDS011;47983;53.016;-2.260;2023-10-13T09:17:24;2.33;;;2.10;;
59306;SDS011;47983;53.016;-2.260;2023-10-13T09:20:07;5.10;;;2.03;;
59306;SDS011;47983;53.016;-2.260;2023-10-13T09:22:52;2.40;;;1.55;;
59306;SDS011;47983;53.016;-2.260;2023-10-13T09:25:35;2.05;;;1.83;;
59306;SDS011;47983;53.016;-2.260;2023-10-13T09:30:54;2.95;;;1.80;;
59306;SDS011;47983;53.016;-2.260;2023-10-13T09:33:26;3.60;;;1.67;;
59306;SDS011;47983;53.016;-2.260;2023-10-13T09:36:00;2.72;;;1.88;;
59306;SDS011;47983;53.016;-2.260;2023-10-13T09:38:32;3.28;;;2.40;;
59306;SDS011;47983;53.016;-2.260;2023-10-13T09:41:06;2.67;;;2.30;;
59306;SDS011;47983;53.016;-2.260;2023-10-13T09:43:48;2.33;;;2.03;;
59306;SDS011;47983;53.016;-2.260;2023-10-13T09:46:19;4.22;;;2.00;;
59306;SDS011;47983;53.016;-2.260;2023-10-13T09:48:51;1.50;;;1.30;;
59306;SDS011;47983;53.016;-2.260;2023-10-13T09:51:35;2.42;;;1.33;;
59306;SDS011;47983;53.016;-2.260;2023-10-13T09:54:11;2.03;;;1.60;;
59306;SDS011;47983;53.016;-2.260;2023-10-13T09:57:01;4.60;;;2.10;;
59306;SDS011;47983;53.016;-2.260;2023-10-13T09:59:48;3.33;;;2.17;;
59306;SDS011;47983;53.016;-2.260;2023-10-13T10:02:20;1.90;;;1.50;;
59306;SDS011;47983;53.016;-2.260;2023-10-13T10:04:55;1.40;;;1.00;;
59306;SDS011;47983;53.016;-2.260;2023-10-13T10:07:40;5.30;;;1.08;;
59306;SDS011;47983;53.016;-2.260;2023-10-13T10:10:11;1.23;;;1.13;;
59306;SDS011;47983;53.016;-2.260;2023-10-13T10:18:02;1.88;;;1.75;;
59306;SDS011;47983;53.016;-2.260;2023-10-13T10:20:32;8.82;;;2.22;;
59306;SDS011;47983;53.016;-2.260;2023-10-13T10:23:23;2.58;;;2.28;;
59306;SDS011;47983;53.016;-2.260;2023-10-13T10:25:51;3.00;;;2.50;;
59306;SDS011;47983;53.016;-2.260;2023-10-13T10:28:19;3.63;;;2.60;;
59306;SDS011;47983;53.016;-2.260;2023-10-13T10:30:47;3.53;;;2.50;;
59306;SDS011;47983;53.016;-2.260;2023-10-13T10:33:15;3.13;;;2.83;;
59306;SDS011;47983;53.016;-2.260;2023-10-13T10:35:43;2.83;;;2.63;;
59306;SDS011;47983;53.016;-2.260;2023-10-13T10:38:17;4.05;;;3.35;;
59306;SDS011;47983;53.016;-2.260;2023-10-13T10:40:52;5.20;;;3.50;;
59306;SDS011;47983;53.016;-2.260;2023-10-13T10:48:44;4.75;;;1.98;;
59306;SDS011;47983;53.016;-2.260;2023-10-13T10:51:13;2.03;;;1.83;;
59306;SDS011;47983;53.016;-2.260;2023-10-13T10:53:52;3.00;;;2.63;;
59306;SDS011;47983;53.016;-2.260;2023-10-13T10:56:24;2.47;;;2.10;;
59306;SDS011;47983;53.016;-2.260;2023-10-13T10:59:05;5.13;;;2.88;;
59306;SDS011;47983;53.016;-2.260;2023-10-13T11:01:45;3.67;;;2.60;;
59306;SDS011;47983;53.016;-2.260;2023-10-13T11:04:16;5.72;;;3.55;;
59306;SDS011;47983;53.016;-2.260;2023-10-13T11:09:32;3.88;;;2.72;;
59306;SDS011;47983;53.016;-2.260;2023-10-13T11:14:43;4.75;;;2.33;;
59306;SDS011;47983;53.016;-2.260;2023-10-13T11:17:21;1.75;;;1.65;;
59306;SDS011;47983;53.016;-2.260;2023-10-13T11:20:10;2.33;;;2.13;;
59306;SDS011;47983;53.016;-2.260;2023-10-13T11:22:47;2.00;;;1.90;;
59306;SDS011;47983;53.016;-2.260;2023-10-13T11:25:21;3.38;;;3.08;;
59306;SDS011;47983;53.016;-2.260;2023-10-13T11:27:50;2.80;;;2.40;;
59306;SDS011;47983;53.016;-2.260;2023-10-13T11:30:18;2.58;;;2.30;;
59306;SDS011;47983;53.016;-2.260;2023-10-13T11:33:12;7.82;;;3.10;;
59306;SDS011;47983;53.016;-2.260;2023-10-13T11:35:45;3.45;;;2.67;;
59306;SDS011;47983;53.016;-2.260;2023-10-13T11:38:17;2.63;;;2.42;;
59306;SDS011;47983;53.016;-2.260;2023-10-13T11:40:58;2.20;;;2.00;;
59306;SDS011;47983;53.016;-2.260;2023-10-13T11:43:30;4.38;;;2.20;;
59306;SDS011;47983;53.016;-2.260;2023-10-13T11:46:11;1.50;;;1.40;;
59306;SDS011;47983;53.016;-2.260;2023-10-13T11:48:45;1.48;;;1.38;;
59306;SDS011;47983;53.016;-2.260;2023-10-13T11:51:14;2.92;;;1.00;;
59306;SDS011;47983;53.016;-2.260;2023-10-13T11:53:51;1.02;;;1.00;;
59306;SDS011;47983;53.016;-2.260;2023-10-13T11:56:19;1.58;;;0.80;;
59306;SDS011;47983;53.016;-2.260;2023-10-13T11:58:48;4.05;;;1.20;;
59306;SDS011;47983;53.016;-2.260;2023-10-13T12:01:16;4.40;;;1.45;;
59306;SDS011;47983;53.016;-2.260;2023-10-13T12:03:46;1.70;;;1.40;;
59306;SDS011;47983;53.016;-2.260;2023-10-13T12:06:35;3.75;;;1.23;;
59306;SDS011;47983;53.016;-2.260;2023-10-13T12:09:04;6.95;;;2.40;;
59306;SDS011;47983;53.016;-2.260;2023-10-13T12:11:58;13.27;;;4.15;;
59306;SDS011;47983;53.016;-2.260;2023-10-13T12:14:28;10.10;;;4.60;;
59306;SDS011;47983;53.016;-2.260;2023-10-13T12:16:57;5.22;;;2.88;;
59306;SDS011;47983;53.016;-2.260;2023-10-13T12:19:31;6.20;;;2.33;;
59306;SDS011;47983;53.016;-2.260;2023-10-13T12:22:02;7.57;;;2.25;;
59306;SDS011;47983;53.016;-2.260;2023-10-13T12:27:03;5.93;;;1.67;;
59306;SDS011;47983;53.016;-2.260;2023-10-13T12:29:46;12.40;;;1.83;;
59306;SDS011;47983;53.016;-2.260;2023-10-13T12:32:23;12.40;;;2.15;;
59306;SDS011;47983;53.016;-2.260;2023-10-13T12:34:52;3.97;;;1.08;;
59306;SDS011;47983;53.016;-2.260;2023-10-13T12:37:32;4.40;;;1.60;;
59306;SDS011;47983;53.016;-2.260;2023-10-13T12:40:04;10.68;;;3.22;;
59306;SDS011;47983;53.016;-2.260;2023-10-13T12:42:52;4.15;;;2.00;;
59306;SDS011;47983;53.016;-2.260;2023-10-13T12:45:41;10.85;;;1.83;;
59306;SDS011;47983;53.016;-2.260;2023-10-13T12:48:29;12.15;;;2.40;;
59306;SDS011;47983;53.016;-2.260;2023-10-13T12:51:16;8.70;;;1.63;;
59306;SDS011;47983;53.016;-2.260;2023-10-13T12:53:48;8.13;;;1.63;;
59306;SDS011;47983;53.016;-2.260;2023-10-13T12:56:19;8.27;;;1.35;;
59306;SDS011;47983;53.016;-2.260;2023-10-13T12:58:53;5.97;;;1.55;;
59306;SDS011;47983;53.016;-2.260;2023-10-13T13:01:23;4.63;;;1.17;;
59306;SDS011;47983;53.016;-2.260;2023-10-13T13:03:52;2.97;;;1.10;;
59306;SDS011;47983;53.016;-2.260;2023-10-13T13:06:24;4.60;;;0.80;;
59306;SDS011;47983;53.016;-2.260;2023-10-13T13:08:53;118.95;;;25.98;;
59306;SDS011;47983;53.016;-2.260;2023-10-13T13:11:26;66.60;;;13.35;;
59306;SDS011;47983;53.016;-2.260;2023-10-13T13:13:57;34.33;;;7.85;;
59306;SDS011;47983;53.016;-2.260;2023-10-13T13:16:24;33.15;;;7.22;;
59306;SDS011;47983;53.016;-2.260;2023-10-13T13:18:57;10.20;;;2.88;;
59306;SDS011;47983;53.016;-2.260;2023-10-13T13:21:25;6.95;;;1.63;;
59306;SDS011;47983;53.016;-2.260;2023-10-13T13:23:54;9.98;;;2.20;;
59306;SDS011;47983;53.016;-2.260;2023-10-13T13:26:22;8.02;;;3.42;;
59306;SDS011;47983;53.016;-2.260;2023-10-13T13:28:50;10.65;;;4.53;;
59306;SDS011;47983;53.016;-2.260;2023-10-13T13:31:18;12.93;;;6.78;;
59306;SDS011;47983;53.016;-2.260;2023-10-13T13:33:52;16.15;;;6.65;;
59306;SDS011;47983;53.016;-2.260;2023-10-13T13:36:20;9.45;;;6.03;;
59306;SDS011;47983;53.016;-2.260;2023-10-13T13:38:49;8.25;;;4.72;;
59306;SDS011;47983;53.016;-2.260;2023-10-13T13:41:18;18.45;;;4.97;;
59306;SDS011;47983;53.016;-2.260;2023-10-13T13:43:48;8.43;;;3.63;;
59306;SDS011;47983;53.016;-2.260;2023-10-13T13:46:16;14.90;;;3.28;;
59306;SDS011;47983;53.016;-2.260;2023-10-13T13:48:45;9.02;;;4.07;;
59306;SDS011;47983;53.016;-2.260;2023-10-13T13:51:14;9.67;;;2.67;;
59306;SDS011;47983;53.016;-2.260;2023-10-13T13:53:43;8.80;;;2.17;;
59306;SDS011;47983;53.016;-2.260;2023-10-13T13:56:17;13.25;;;2.40;;
59306;SDS011;47983;53.016;-2.260;2023-10-13T13:58:47;10.35;;;2.28;;
59306;SDS011;47983;53.016;-2.260;2023-10-13T14:01:17;8.00;;;1.92;;
59306;SDS011;47983;53.016;-2.260;2023-10-13T14:03:46;6.20;;;1.85;;
59306;SDS011;47983;53.016;-2.260;2023-10-13T14:06:18;11.10;;;2.55;;
59306;SDS011;47983;53.016;-2.260;2023-10-13T14:08:51;8.38;;;2.00;;
59306;SDS011;47983;53.016;-2.260;2023-10-13T14:11:26;5.53;;;1.77;;
59306;SDS011;47983;53.016;-2.260;2023-10-13T14:16:43;13.30;;;2.00;;
59306;SDS011;47983;53.016;-2.260;2023-10-13T14:19:17;10.43;;;1.75;;
59306;SDS011;47983;53.016;-2.260;2023-10-13T14:21:58;13.55;;;1.95;;
59306;SDS011;47983;53.016;-2.260;2023-10-13T14:24:34;10.10;;;2.00;;
59306;SDS011;47983;53.016;-2.260;2023-10-13T14:27:03;15.68;;;2.17;;
59306;SDS011;47983;53.016;-2.260;2023-10-13T14:29:39;6.43;;;2.03;;
59306;SDS011;47983;53.016;-2.260;2023-10-13T14:32:08;15.05;;;2.70;;
59306;SDS011;47983;53.016;-2.260;2023-10-13T14:34:43;9.85;;;1.60;;
59306;SDS011;47983;53.016;-2.260;2023-10-13T14:37:13;12.25;;;1.85;;
59306;SDS011;47983;53.016;-2.260;2023-10-13T14:39:41;6.38;;;1.88;;
59306;SDS011;47983;53.016;-2.260;2023-10-13T14:42:09;10.52;;;1.55;;
59306;SDS011;47983;53.016;-2.260;2023-10-13T14:44:36;14.90;;;1.70;;
59306;SDS011;47983;53.016;-2.260;2023-10-13T14:47:04;9.60;;;1.92;;
59306;SDS011;47983;53.016;-2.260;2023-10-13T14:49:32;14.50;;;2.10;;
59306;SDS011;47983;53.016;-2.260;2023-10-13T14:52:02;17.50;;;1.98;;
59306;SDS011;47983;53.016;-2.260;2023-10-13T14:54:30;11.43;;;1.83;;
59306;SDS011;47983;53.016;-2.260;2023-10-13T14:57:02;13.25;;;2.55;;
59306;SDS011;47983;53.016;-2.260;2023-10-13T14:59:30;12.70;;;2.05;;
59306;SDS011;47983;53.016;-2.260;2023-10-13T15:02:01;16.08;;;2.00;;
59306;SDS011;47983;53.016;-2.260;2023-10-13T15:04:29;15.85;;;2.92;;
59306;SDS011;47983;53.016;-2.260;2023-10-13T15:07:00;21.02;;;2.88;;
59306;SDS011;47983;53.016;-2.260;2023-10-13T15:09:29;19.42;;;2.55;;
59306;SDS011;47983;53.016;-2.260;2023-10-13T15:11:57;14.77;;;2.22;;
59306;SDS011;47983;53.016;-2.260;2023-10-13T15:14:24;14.23;;;2.00;;
59306;SDS011;47983;53.016;-2.260;2023-10-13T15:16:52;19.73;;;2.30;;
59306;SDS011;47983;53.016;-2.260;2023-10-13T15:19:20;14.18;;;2.17;;
59306;SDS011;47983;53.016;-2.260;2023-10-13T15:21:48;15.70;;;3.60;;
59306;SDS011;47983;53.016;-2.260;2023-10-13T15:24:20;19.67;;;2.35;;
59306;SDS011;47983;53.016;-2.260;2023-10-13T15:26:59;13.82;;;2.70;;
59306;SDS011;47983;53.016;-2.260;2023-10-13T15:29:35;15.23;;;2.83;;
59306;SDS011;47983;53.016;-2.260;2023-10-13T15:32:05;15.68;;;2.05;;
59306;SDS011;47983;53.016;-2.260;2023-10-13T15:37:23;16.63;;;2.60;;
59306;SDS011;47983;53.016;-2.260;2023-10-13T15:39:53;16.80;;;1.88;;
59306;SDS011;47983;53.016;-2.260;2023-10-13T15:42:21;12.07;;;2.13;;
59306;SDS011;47983;53.016;-2.260;2023-10-13T15:44:49;15.52;;;2.03;;
59306;SDS011;47983;53.016;-2.260;2023-10-13T15:47:18;9.40;;;1.92;;
59306;SDS011;47983;53.016;-2.260;2023-10-13T15:49:49;16.50;;;1.83;;
59306;SDS011;47983;53.016;-2.260;2023-10-13T15:52:16;23.52;;;2.90;;
59306;SDS011;47983;53.016;-2.260;2023-10-13T15:54:46;18.93;;;2.33;;